This is the latest recevied weather packets stored in our database for station/object JF2ZGN-13. If no packets are shown the sender has not sent any weather packets the latest 10 day(s).
| Time | Temp. | Humidity | Pressure | Rain* | Wind** | Luminosity | Snow |
|---|---|---|---|---|---|---|---|
| 1777665771 | 9.44° C | 61% | 892.7 hPa | 0 mm | - | - | - |
| 1777665171 | 8.33° C | 71% | 892.6 hPa | 0 mm | - | - | - |
| 1777664570 | 7.22° C | 80% | 892.5 hPa | 0 mm | - | - | - |
| 1777663970 | 6.67° C | 84% | 892.4 hPa | 0 mm | - | - | - |
| 1777663369 | 6.67° C | 84% | 892 hPa | 0 mm | - | - | - |
| 1777662769 | 6.67° C | 83% | 891.7 hPa | 0 mm | - | - | - |
| 1777662168 | 7.22° C | 81% | 891.3 hPa | 0 mm | - | - | - |
| 1777661568 | 7.22° C | 78% | 890.8 hPa | 0 mm | - | - | - |
| 1777660967 | 6.67° C | 83% | 890.5 hPa | 0 mm | - | - | - |
| 1777660368 | 6.67° C | 81% | 890.1 hPa | 0 mm | - | - | - |
| 1777659766 | 6.67° C | 81% | 889.8 hPa | 0 mm | - | - | - |
| 1777659166 | 6.67° C | 83% | 889.7 hPa | 0 mm | - | - | - |
| 1777658566 | 6.67° C | 83% | 889.2 hPa | 0 mm | - | - | - |
| 1777657966 | 6.11° C | 85% | 888.9 hPa | 0 mm | - | - | - |
| 1777657365 | 6.11° C | 84% | 888.5 hPa | 0 mm | - | - | - |
| 1777656764 | 6.67° C | 81% | 888.4 hPa | 0 mm | - | - | - |
| 1777656164 | 6.11° C | 81% | 888 hPa | 0 mm | - | - | - |
| 1777655564 | 6.11° C | 82% | 887.5 hPa | 0 mm | - | - | - |
| 1777654964 | 6.11° C | 81% | 887.5 hPa | 0 mm | - | - | - |
| 1777654363 | 6.11° C | 81% | 887.4 hPa | 0 mm | - | - | - |
| 1777653763 | 6.11° C | 79% | 887.3 hPa | 0 mm | - | - | - |
| 1777653161 | 6.67° C | 79% | 886.8 hPa | 0 mm | - | - | - |
| 1777652561 | 6.11° C | 80% | 886.9 hPa | 0 mm | - | - | - |
| 1777651961 | 6.11° C | 79% | 887.2 hPa | 0 mm | - | - | - |
| 1777651360 | 6.11° C | 80% | 887.4 hPa | 0 mm | - | - | - |
* Rain since midnight (hover to see other rain measurements)
** Current wind speed in m/s (hover to see current wind gust speed)